sensor_id;sensor_type;location;lat;lon;timestamp;temperature;humidity
48648;DHT22;34437;-33.956;151.076;2023-04-15T00:02:15;21.20;65.50
48648;DHT22;34437;-33.956;151.076;2023-04-15T00:04:38;21.20;65.50
48648;DHT22;34437;-33.956;151.076;2023-04-15T00:07:01;21.30;65.40
48648;DHT22;34437;-33.956;151.076;2023-04-15T00:09:23;21.30;65.40
48648;DHT22;34437;-33.956;151.076;2023-04-15T00:11:46;21.30;65.40
48648;DHT22;34437;-33.956;151.076;2023-04-15T00:14:08;21.40;65.40
48648;DHT22;34437;-33.956;151.076;2023-04-15T00:16:31;21.40;65.20
48648;DHT22;34437;-33.956;151.076;2023-04-15T00:18:53;21.40;65.20
48648;DHT22;34437;-33.956;151.076;2023-04-15T00:21:16;21.50;65.20
48648;DHT22;34437;-33.956;151.076;2023-04-15T00:23:38;21.50;65.20
48648;DHT22;34437;-33.956;151.076;2023-04-15T00:26:01;21.50;65.10
48648;DHT22;34437;-33.956;151.076;2023-04-15T00:28:23;21.50;65.00
48648;DHT22;34437;-33.956;151.076;2023-04-15T00:30:46;21.50;65.10
48648;DHT22;34437;-33.956;151.076;2023-04-15T00:33:17;21.50;64.90
48648;DHT22;34437;-33.956;151.076;2023-04-15T00:35:42;21.50;64.20
48648;DHT22;34437;-33.956;151.076;2023-04-15T00:38:05;21.50;64.30
48648;DHT22;34437;-33.956;151.076;2023-04-15T00:40:37;21.50;64.00
48648;DHT22;34437;-33.956;151.076;2023-04-15T00:42:59;21.50;63.90
48648;DHT22;34437;-33.956;151.076;2023-04-15T00:45:28;21.50;63.70
48648;DHT22;34437;-33.956;151.076;2023-04-15T00:50:40;21.50;63.40
48648;DHT22;34437;-33.956;151.076;2023-04-15T00:53:06;21.50;65.20
48648;DHT22;34437;-33.956;151.076;2023-04-15T00:55:31;21.50;65.40
48648;DHT22;34437;-33.956;151.076;2023-04-15T00:58:03;21.50;65.20
48648;DHT22;34437;-33.956;151.076;2023-04-15T01:00:29;21.50;64.70
48648;DHT22;34437;-33.956;151.076;2023-04-15T01:02:56;21.50;65.00
48648;DHT22;34437;-33.956;151.076;2023-04-15T01:05:26;21.60;65.40
48648;DHT22;34437;-33.956;151.076;2023-04-15T01:07:48;21.60;65.60
48648;DHT22;34437;-33.956;151.076;2023-04-15T01:16:41;21.70;66.30
48648;DHT22;34437;-33.956;151.076;2023-04-15T01:19:08;21.80;66.10
48648;DHT22;34437;-33.956;151.076;2023-04-15T01:21:31;21.80;66.10
48648;DHT22;34437;-33.956;151.076;2023-04-15T01:23:54;21.80;66.00
48648;DHT22;34437;-33.956;151.076;2023-04-15T01:26:18;21.80;65.50
48648;DHT22;34437;-33.956;151.076;2023-04-15T01:28:42;21.80;65.00
48648;DHT22;34437;-33.956;151.076;2023-04-15T01:31:14;21.80;65.00
48648;DHT22;34437;-33.956;151.076;2023-04-15T01:33:38;21.80;65.00
48648;DHT22;34437;-33.956;151.076;2023-04-15T01:36:00;21.80;64.80
48648;DHT22;34437;-33.956;151.076;2023-04-15T01:38:24;21.90;64.70
48648;DHT22;34437;-33.956;151.076;2023-04-15T01:40:47;21.90;64.40
48648;DHT22;34437;-33.956;151.076;2023-04-15T01:43:09;21.90;64.10
48648;DHT22;34437;-33.956;151.076;2023-04-15T01:45:31;21.90;64.10
48648;DHT22;34437;-33.956;151.076;2023-04-15T01:47:54;21.90;64.00
48648;DHT22;34437;-33.956;151.076;2023-04-15T01:50:16;21.90;63.80
48648;DHT22;34437;-33.956;151.076;2023-04-15T01:52:39;21.90;63.70
48648;DHT22;34437;-33.956;151.076;2023-04-15T01:55:02;21.90;63.70
48648;DHT22;34437;-33.956;151.076;2023-04-15T01:57:24;21.90;63.50
48648;DHT22;34437;-33.956;151.076;2023-04-15T01:59:47;21.90;63.30
48648;DHT22;34437;-33.956;151.076;2023-04-15T02:02:10;21.90;63.20
48648;DHT22;34437;-33.956;151.076;2023-04-15T02:04:33;21.90;63.10
48648;DHT22;34437;-33.956;151.076;2023-04-15T02:06:55;21.90;63.00
48648;DHT22;34437;-33.956;151.076;2023-04-15T02:09:17;21.90;62.90
48648;DHT22;34437;-33.956;151.076;2023-04-15T02:11:41;21.90;62.70
48648;DHT22;34437;-33.956;151.076;2023-04-15T02:14:03;21.90;62.60
48648;DHT22;34437;-33.956;151.076;2023-04-15T02:16:27;21.90;62.40
48648;DHT22;34437;-33.956;151.076;2023-04-15T02:18:49;21.90;62.40
48648;DHT22;34437;-33.956;151.076;2023-04-15T02:21:13;21.90;62.10
48648;DHT22;34437;-33.956;151.076;2023-04-15T02:23:35;21.90;62.00
48648;DHT22;34437;-33.956;151.076;2023-04-15T02:25:57;21.90;62.00
48648;DHT22;34437;-33.956;151.076;2023-04-15T02:28:21;21.90;61.90
48648;DHT22;34437;-33.956;151.076;2023-04-15T02:30:49;21.90;61.70
48648;DHT22;34437;-33.956;151.076;2023-04-15T02:33:13;21.90;61.70
48648;DHT22;34437;-33.956;151.076;2023-04-15T02:35:36;21.90;61.60
48648;DHT22;34437;-33.956;151.076;2023-04-15T02:38:02;21.90;61.40
48648;DHT22;34437;-33.956;151.076;2023-04-15T02:40:25;22.00;61.30
48648;DHT22;34437;-33.956;151.076;2023-04-15T02:42:47;22.00;61.20
48648;DHT22;34437;-33.956;151.076;2023-04-15T02:45:10;22.00;61.10
48648;DHT22;34437;-33.956;151.076;2023-04-15T02:47:36;22.00;61.00
48648;DHT22;34437;-33.956;151.076;2023-04-15T02:50:02;22.00;60.90
48648;DHT22;34437;-33.956;151.076;2023-04-15T02:52:25;22.00;60.70
48648;DHT22;34437;-33.956;151.076;2023-04-15T02:54:47;22.00;60.50
48648;DHT22;34437;-33.956;151.076;2023-04-15T02:57:10;22.10;60.60
48648;DHT22;34437;-33.956;151.076;2023-04-15T02:59:33;22.10;60.50
48648;DHT22;34437;-33.956;151.076;2023-04-15T03:01:55;22.10;60.50
48648;DHT22;34437;-33.956;151.076;2023-04-15T03:04:21;22.10;60.40
48648;DHT22;34437;-33.956;151.076;2023-04-15T03:06:43;22.10;60.50
48648;DHT22;34437;-33.956;151.076;2023-04-15T03:09:06;22.10;60.30
48648;DHT22;34437;-33.956;151.076;2023-04-15T03:11:29;22.20;60.40
48648;DHT22;34437;-33.956;151.076;2023-04-15T03:13:52;22.20;60.30
48648;DHT22;34437;-33.956;151.076;2023-04-15T03:16:14;22.20;60.20
48648;DHT22;34437;-33.956;151.076;2023-04-15T03:18:37;22.20;60.00
48648;DHT22;34437;-33.956;151.076;2023-04-15T03:20:59;22.30;60.00
48648;DHT22;34437;-33.956;151.076;2023-04-15T03:23:22;22.30;59.80
48648;DHT22;34437;-33.956;151.076;2023-04-15T03:25:44;22.30;59.90
48648;DHT22;34437;-33.956;151.076;2023-04-15T03:28:06;22.40;59.80
48648;DHT22;34437;-33.956;151.076;2023-04-15T03:30:29;22.40;59.70
48648;DHT22;34437;-33.956;151.076;2023-04-15T03:32:52;22.50;59.50
48648;DHT22;34437;-33.956;151.076;2023-04-15T03:35:14;22.50;59.40
48648;DHT22;34437;-33.956;151.076;2023-04-15T03:37:37;22.50;59.30
48648;DHT22;34437;-33.956;151.076;2023-04-15T03:39:59;22.60;59.20
48648;DHT22;34437;-33.956;151.076;2023-04-15T03:42:22;22.60;59.00
48648;DHT22;34437;-33.956;151.076;2023-04-15T03:44:44;22.70;58.90
48648;DHT22;34437;-33.956;151.076;2023-04-15T03:47:07;22.70;59.00
48648;DHT22;34437;-33.956;151.076;2023-04-15T03:49:29;22.80;59.60
48648;DHT22;34437;-33.956;151.076;2023-04-15T03:51:51;22.80;58.90
48648;DHT22;34437;-33.956;151.076;2023-04-15T03:54:14;22.90;58.90
48648;DHT22;34437;-33.956;151.076;2023-04-15T03:56:37;22.90;58.80
48648;DHT22;34437;-33.956;151.076;2023-04-15T03:58:59;23.00;58.80
48648;DHT22;34437;-33.956;151.076;2023-04-15T04:01:22;23.00;58.70
48648;DHT22;34437;-33.956;151.076;2023-04-15T04:03:44;23.10;58.60
48648;DHT22;34437;-33.956;151.076;2023-04-15T04:06:07;23.20;58.50
48648;DHT22;34437;-33.956;151.076;2023-04-15T04:08:29;23.20;58.30
48648;DHT22;34437;-33.956;151.076;2023-04-15T04:10:52;23.30;58.30
48648;DHT22;34437;-33.956;151.076;2023-04-15T04:13:14;23.30;58.20
48648;DHT22;34437;-33.956;151.076;2023-04-15T04:15:37;23.40;58.30
48648;DHT22;34437;-33.956;151.076;2023-04-15T04:17:59;23.40;58.20
48648;DHT22;34437;-33.956;151.076;2023-04-15T04:20:22;23.40;58.20
48648;DHT22;34437;-33.956;151.076;2023-04-15T04:22:44;23.50;58.20
48648;DHT22;34437;-33.956;151.076;2023-04-15T04:25:07;23.50;58.20
48648;DHT22;34437;-33.956;151.076;2023-04-15T04:27:30;23.50;58.00
48648;DHT22;34437;-33.956;151.076;2023-04-15T04:29:53;23.50;58.10
48648;DHT22;34437;-33.956;151.076;2023-04-15T04:32:15;23.50;58.00
48648;DHT22;34437;-33.956;151.076;2023-04-15T04:34:38;23.60;58.00
48648;DHT22;34437;-33.956;151.076;2023-04-15T04:37:00;23.60;58.10
48648;DHT22;34437;-33.956;151.076;2023-04-15T04:39:22;23.60;58.20
48648;DHT22;34437;-33.956;151.076;2023-04-15T04:41:45;23.60;58.30
48648;DHT22;34437;-33.956;151.076;2023-04-15T04:44:07;23.70;58.50
48648;DHT22;34437;-33.956;151.076;2023-04-15T04:46:30;23.70;58.60
48648;DHT22;34437;-33.956;151.076;2023-04-15T04:48:52;23.80;58.60
48648;DHT22;34437;-33.956;151.076;2023-04-15T04:51:14;23.90;58.60
48648;DHT22;34437;-33.956;151.076;2023-04-15T04:53:37;24.00;58.60
48648;DHT22;34437;-33.956;151.076;2023-04-15T04:55:59;24.10;58.50
48648;DHT22;34437;-33.956;151.076;2023-04-15T04:58:22;24.20;58.50
48648;DHT22;34437;-33.956;151.076;2023-04-15T05:00:44;24.30;58.40
48648;DHT22;34437;-33.956;151.076;2023-04-15T05:03:07;24.30;58.30
48648;DHT22;34437;-33.956;151.076;2023-04-15T05:05:29;24.40;58.40
48648;DHT22;34437;-33.956;151.076;2023-04-15T05:07:52;24.50;58.30
48648;DHT22;34437;-33.956;151.076;2023-04-15T05:10:14;24.60;58.30
48648;DHT22;34437;-33.956;151.076;2023-04-15T05:12:38;24.60;58.20
48648;DHT22;34437;-33.956;151.076;2023-04-15T05:15:01;24.70;58.10
48648;DHT22;34437;-33.956;151.076;2023-04-15T05:17:23;24.80;58.00
48648;DHT22;34437;-33.956;151.076;2023-04-15T05:19:45;24.90;58.00
48648;DHT22;34437;-33.956;151.076;2023-04-15T05:22:08;25.00;57.90
48648;DHT22;34437;-33.956;151.076;2023-04-15T05:24:30;25.10;57.80
48648;DHT22;34437;-33.956;151.076;2023-04-15T05:26:53;25.10;57.70
48648;DHT22;34437;-33.956;151.076;2023-04-15T05:29:15;25.20;57.70
48648;DHT22;34437;-33.956;151.076;2023-04-15T05:31:38;25.10;57.50
48648;DHT22;34437;-33.956;151.076;2023-04-15T05:34:00;25.10;57.70
48648;DHT22;34437;-33.956;151.076;2023-04-15T05:36:23;25.10;57.80
48648;DHT22;34437;-33.956;151.076;2023-04-15T05:38:45;25.10;58.00
48648;DHT22;34437;-33.956;151.076;2023-04-15T05:41:08;25.10;58.00
48648;DHT22;34437;-33.956;151.076;2023-04-15T05:43:30;25.10;58.00
48648;DHT22;34437;-33.956;151.076;2023-04-15T05:45:53;25.20;58.00
48648;DHT22;34437;-33.956;151.076;2023-04-15T05:48:15;25.10;57.90
48648;DHT22;34437;-33.956;151.076;2023-04-15T05:50:40;25.10;58.10
48648;DHT22;34437;-33.956;151.076;2023-04-15T05:53:03;25.10;58.00
48648;DHT22;34437;-33.956;151.076;2023-04-15T05:55:25;25.10;58.20
48648;DHT22;34437;-33.956;151.076;2023-04-15T05:57:48;25.10;58.20
48648;DHT22;34437;-33.956;151.076;2023-04-15T06:00:10;25.10;58.20
48648;DHT22;34437;-33.956;151.076;2023-04-15T06:02:33;25.10;58.20
48648;DHT22;34437;-33.956;151.076;2023-04-15T06:04:56;25.20;58.10
48648;DHT22;34437;-33.956;151.076;2023-04-15T06:07:18;25.30;58.00
48648;DHT22;34437;-33.956;151.076;2023-04-15T06:09:41;25.30;57.90
48648;DHT22;34437;-33.956;151.076;2023-04-15T06:12:03;25.30;57.80
48648;DHT22;34437;-33.956;151.076;2023-04-15T06:14:26;25.30;57.80
48648;DHT22;34437;-33.956;151.076;2023-04-15T06:16:49;25.30;57.90
48648;DHT22;34437;-33.956;151.076;2023-04-15T06:19:12;25.30;57.90
48648;DHT22;34437;-33.956;151.076;2023-04-15T06:21:35;25.30;57.90
48648;DHT22;34437;-33.956;151.076;2023-04-15T06:23:58;25.30;57.90
48648;DHT22;34437;-33.956;151.076;2023-04-15T06:26:24;25.30;57.90
48648;DHT22;34437;-33.956;151.076;2023-04-15T06:28:47;25.30;57.90
48648;DHT22;34437;-33.956;151.076;2023-04-15T06:31:09;25.20;57.90
48648;DHT22;34437;-33.956;151.076;2023-04-15T06:33:32;25.20;58.00
48648;DHT22;34437;-33.956;151.076;2023-04-15T06:35:54;25.10;58.10
48648;DHT22;34437;-33.956;151.076;2023-04-15T06:38:16;25.10;58.30
48648;DHT22;34437;-33.956;151.076;2023-04-15T06:40:39;25.10;58.40
48648;DHT22;34437;-33.956;151.076;2023-04-15T06:43:01;25.00;58.40
48648;DHT22;34437;-33.956;151.076;2023-04-15T06:45:25;25.00;58.60
48648;DHT22;34437;-33.956;151.076;2023-04-15T06:47:48;24.90;58.60
48648;DHT22;34437;-33.956;151.076;2023-04-15T06:50:10;24.90;58.70
48648;DHT22;34437;-33.956;151.076;2023-04-15T06:52:33;24.90;58.80
48648;DHT22;34437;-33.956;151.076;2023-04-15T06:54:55;24.80;58.90
48648;DHT22;34437;-33.956;151.076;2023-04-15T06:57:17;24.80;59.00
48648;DHT22;34437;-33.956;151.076;2023-04-15T06:59:40;24.80;59.00
48648;DHT22;34437;-33.956;151.076;2023-04-15T07:02:03;24.80;59.20
48648;DHT22;34437;-33.956;151.076;2023-04-15T07:04:26;24.80;59.20
48648;DHT22;34437;-33.956;151.076;2023-04-15T07:06:48;24.80;59.20
48648;DHT22;34437;-33.956;151.076;2023-04-15T07:09:11;24.70;59.20
48648;DHT22;34437;-33.956;151.076;2023-04-15T07:11:34;24.70;59.20
48648;DHT22;34437;-33.956;151.076;2023-04-15T07:14:00;24.70;59.30
48648;DHT22;34437;-33.956;151.076;2023-04-15T07:16:22;24.60;59.40
48648;DHT22;34437;-33.956;151.076;2023-04-15T07:18:44;24.70;59.40
48648;DHT22;34437;-33.956;151.076;2023-04-15T07:21:07;24.60;59.50
48648;DHT22;34437;-33.956;151.076;2023-04-15T07:23:30;24.60;59.60
48648;DHT22;34437;-33.956;151.076;2023-04-15T07:25:52;24.60;59.60
48648;DHT22;34437;-33.956;151.076;2023-04-15T07:28:15;24.60;59.70
48648;DHT22;34437;-33.956;151.076;2023-04-15T07:30:37;24.60;59.70
48648;DHT22;34437;-33.956;151.076;2023-04-15T07:33:00;24.50;59.80
48648;DHT22;34437;-33.956;151.076;2023-04-15T07:35:23;24.60;59.90
48648;DHT22;34437;-33.956;151.076;2023-04-15T07:37:47;24.60;60.00
48648;DHT22;34437;-33.956;151.076;2023-04-15T07:40:10;24.50;60.00
48648;DHT22;34437;-33.956;151.076;2023-04-15T07:42:33;24.50;60.10
48648;DHT22;34437;-33.956;151.076;2023-04-15T07:44:56;24.50;60.10
48648;DHT22;34437;-33.956;151.076;2023-04-15T07:47:19;24.50;60.20
48648;DHT22;34437;-33.956;151.076;2023-04-15T07:49:41;24.40;60.20
48648;DHT22;34437;-33.956;151.076;2023-04-15T07:52:05;24.40;60.20
48648;DHT22;34437;-33.956;151.076;2023-04-15T07:54:27;24.40;60.40
48648;DHT22;34437;-33.956;151.076;2023-04-15T07:56:49;24.40;60.40
48648;DHT22;34437;-33.956;151.076;2023-04-15T07:59:12;24.40;60.50
48648;DHT22;34437;-33.956;151.076;2023-04-15T08:01:35;24.40;60.60
48648;DHT22;34437;-33.956;151.076;2023-04-15T08:04:00;24.40;60.50
48648;DHT22;34437;-33.956;151.076;2023-04-15T08:06:23;24.40;60.60
48648;DHT22;34437;-33.956;151.076;2023-04-15T08:08:46;24.40;60.60
48648;DHT22;34437;-33.956;151.076;2023-04-15T08:11:08;24.40;60.70
48648;DHT22;34437;-33.956;151.076;2023-04-15T08:13:31;24.40;60.80
48648;DHT22;34437;-33.956;151.076;2023-04-15T08:16:17;24.40;60.80
48648;DHT22;34437;-33.956;151.076;2023-04-15T08:18:40;24.40;61.10
48648;DHT22;34437;-33.956;151.076;2023-04-15T08:21:02;24.30;60.80
48648;DHT22;34437;-33.956;151.076;2023-04-15T08:23:25;24.30;60.90
48648;DHT22;34437;-33.956;151.076;2023-04-15T08:25:47;24.30;61.00
48648;DHT22;34437;-33.956;151.076;2023-04-15T08:28:10;24.30;61.10
48648;DHT22;34437;-33.956;151.076;2023-04-15T08:30:32;24.30;61.10
48648;DHT22;34437;-33.956;151.076;2023-04-15T08:32:55;24.30;61.10
48648;DHT22;34437;-33.956;151.076;2023-04-15T08:35:17;24.30;61.10
48648;DHT22;34437;-33.956;151.076;2023-04-15T08:37:40;24.30;61.20
48648;DHT22;34437;-33.956;151.076;2023-04-15T08:40:03;24.20;61.20
48648;DHT22;34437;-33.956;151.076;2023-04-15T08:42:47;24.20;61.30
48648;DHT22;34437;-33.956;151.076;2023-04-15T08:45:10;24.20;61.40
48648;DHT22;34437;-33.956;151.076;2023-04-15T08:47:32;24.20;61.30
48648;DHT22;34437;-33.956;151.076;2023-04-15T08:49:57;24.20;61.40
48648;DHT22;34437;-33.956;151.076;2023-04-15T08:52:20;24.20;61.40
48648;DHT22;34437;-33.956;151.076;2023-04-15T08:54:43;24.20;61.40
48648;DHT22;34437;-33.956;151.076;2023-04-15T08:57:06;24.20;61.50
48648;DHT22;34437;-33.956;151.076;2023-04-15T08:59:30;24.20;61.50
48648;DHT22;34437;-33.956;151.076;2023-04-15T09:01:52;24.20;61.60
48648;DHT22;34437;-33.956;151.076;2023-04-15T09:04:16;24.20;61.60
48648;DHT22;34437;-33.956;151.076;2023-04-15T09:06:39;24.20;61.70
48648;DHT22;34437;-33.956;151.076;2023-04-15T09:09:02;24.20;61.70
48648;DHT22;34437;-33.956;151.076;2023-04-15T09:11:24;24.20;61.70
48648;DHT22;34437;-33.956;151.076;2023-04-15T09:13:48;24.20;61.70
48648;DHT22;34437;-33.956;151.076;2023-04-15T09:16:12;24.20;61.80
48648;DHT22;34437;-33.956;151.076;2023-04-15T09:18:36;24.20;61.70
48648;DHT22;34437;-33.956;151.076;2023-04-15T09:21:06;24.20;61.90
48648;DHT22;34437;-33.956;151.076;2023-04-15T09:23:29;24.10;61.90
48648;DHT22;34437;-33.956;151.076;2023-04-15T09:25:52;24.10;62.00
48648;DHT22;34437;-33.956;151.076;2023-04-15T09:28:14;24.10;62.00
48648;DHT22;34437;-33.956;151.076;2023-04-15T09:30:44;24.10;62.00
48648;DHT22;34437;-33.956;151.076;2023-04-15T09:33:07;24.10;62.00
48648;DHT22;34437;-33.956;151.076;2023-04-15T09:35:31;24.10;62.00
48648;DHT22;34437;-33.956;151.076;2023-04-15T09:38:05;24.10;62.10
48648;DHT22;34437;-33.956;151.076;2023-04-15T09:40:38;24.10;62.10
48648;DHT22;34437;-33.956;151.076;2023-04-15T09:43:02;24.10;62.10
48648;DHT22;34437;-33.956;151.076;2023-04-15T09:45:25;24.10;62.20
48648;DHT22;34437;-33.956;151.076;2023-04-15T09:47:48;24.10;62.10
48648;DHT22;34437;-33.956;151.076;2023-04-15T09:50:13;24.10;62.20
48648;DHT22;34437;-33.956;151.076;2023-04-15T09:52:41;24.10;62.20
48648;DHT22;34437;-33.956;151.076;2023-04-15T09:55:05;24.00;62.20
48648;DHT22;34437;-33.956;151.076;2023-04-15T09:57:34;24.00;62.20
48648;DHT22;34437;-33.956;151.076;2023-04-15T09:59:57;24.10;62.20
48648;DHT22;34437;-33.956;151.076;2023-04-15T10:02:20;24.00;62.20
48648;DHT22;34437;-33.956;151.076;2023-04-15T10:04:44;24.00;62.30
48648;DHT22;34437;-33.956;151.076;2023-04-15T10:07:08;24.00;62.20
48648;DHT22;34437;-33.956;151.076;2023-04-15T10:09:30;24.00;62.30
48648;DHT22;34437;-33.956;151.076;2023-04-15T10:11:54;24.00;62.30
48648;DHT22;34437;-33.956;151.076;2023-04-15T10:14:18;24.00;62.40
48648;DHT22;34437;-33.956;151.076;2023-04-15T10:16:43;24.00;62.40
48648;DHT22;34437;-33.956;151.076;2023-04-15T10:19:10;24.00;62.30
48648;DHT22;34437;-33.956;151.076;2023-04-15T10:21:33;24.00;62.40
48648;DHT22;34437;-33.956;151.076;2023-04-15T10:23:57;24.00;62.40
48648;DHT22;34437;-33.956;151.076;2023-04-15T10:26:19;24.00;62.30
48648;DHT22;34437;-33.956;151.076;2023-04-15T10:28:43;24.00;62.40
48648;DHT22;34437;-33.956;151.076;2023-04-15T10:31:06;24.00;62.40
48648;DHT22;34437;-33.956;151.076;2023-04-15T10:33:29;24.00;62.50
48648;DHT22;34437;-33.956;151.076;2023-04-15T10:35:54;24.00;62.50
48648;DHT22;34437;-33.956;151.076;2023-04-15T10:38:44;24.00;62.50
48648;DHT22;34437;-33.956;151.076;2023-04-15T10:43:36;23.90;62.50
48648;DHT22;34437;-33.956;151.076;2023-04-15T10:45:59;23.90;62.50
48648;DHT22;34437;-33.956;151.076;2023-04-15T10:48:21;23.90;62.50
48648;DHT22;34437;-33.956;151.076;2023-04-15T10:50:56;23.90;62.50
48648;DHT22;34437;-33.956;151.076;2023-04-15T10:53:29;23.90;62.50
48648;DHT22;34437;-33.956;151.076;2023-04-15T10:55:52;23.90;62.50
48648;DHT22;34437;-33.956;151.076;2023-04-15T10:58:14;23.90;62.60
48648;DHT22;34437;-33.956;151.076;2023-04-15T11:00:37;23.90;62.60
48648;DHT22;34437;-33.956;151.076;2023-04-15T11:03:07;23.90;62.60
48648;DHT22;34437;-33.956;151.076;2023-04-15T11:08:04;23.90;62.70
48648;DHT22;34437;-33.956;151.076;2023-04-15T11:12:57;23.90;63.00
48648;DHT22;34437;-33.956;151.076;2023-04-15T11:15:37;23.90;62.80
48648;DHT22;34437;-33.956;151.076;2023-04-15T11:18:15;23.90;62.80
48648;DHT22;34437;-33.956;151.076;2023-04-15T11:20:40;23.80;62.80
48648;DHT22;34437;-33.956;151.076;2023-04-15T11:23:04;23.80;62.90
48648;DHT22;34437;-33.956;151.076;2023-04-15T11:25:28;23.90;62.90
48648;DHT22;34437;-33.956;151.076;2023-04-15T11:27:52;23.80;62.90
48648;DHT22;34437;-33.956;151.076;2023-04-15T11:30:23;23.80;62.90
48648;DHT22;34437;-33.956;151.076;2023-04-15T11:32:47;23.80;62.90
48648;DHT22;34437;-33.956;151.076;2023-04-15T11:35:09;23.80;62.90
48648;DHT22;34437;-33.956;151.076;2023-04-15T11:37:32;23.80;63.00
48648;DHT22;34437;-33.956;151.076;2023-04-15T11:39:55;23.80;62.90
48648;DHT22;34437;-33.956;151.076;2023-04-15T11:42:17;23.90;63.00
48648;DHT22;34437;-33.956;151.076;2023-04-15T11:44:40;23.80;63.00
48648;DHT22;34437;-33.956;151.076;2023-04-15T11:47:24;23.80;63.00
48648;DHT22;34437;-33.956;151.076;2023-04-15T11:49:46;23.80;63.00
48648;DHT22;34437;-33.956;151.076;2023-04-15T11:52:12;23.80;63.00
48648;DHT22;34437;-33.956;151.076;2023-04-15T11:54:34;23.80;63.10
48648;DHT22;34437;-33.956;151.076;2023-04-15T11:56:58;23.80;63.10
48648;DHT22;34437;-33.956;151.076;2023-04-15T11:59:22;23.80;63.10
48648;DHT22;34437;-33.956;151.076;2023-04-15T12:01:44;23.80;63.10
48648;DHT22;34437;-33.956;151.076;2023-04-15T12:04:12;23.80;63.10
48648;DHT22;34437;-33.956;151.076;2023-04-15T12:06:35;23.80;63.20
48648;DHT22;34437;-33.956;151.076;2023-04-15T12:11:37;23.80;63.20
48648;DHT22;34437;-33.956;151.076;2023-04-15T12:14:08;23.80;63.20
48648;DHT22;34437;-33.956;151.076;2023-04-15T12:16:32;23.80;63.20
48648;DHT22;34437;-33.956;151.076;2023-04-15T12:18:56;23.80;63.20
48648;DHT22;34437;-33.956;151.076;2023-04-15T12:21:22;23.70;63.20
48648;DHT22;34437;-33.956;151.076;2023-04-15T12:23:55;23.80;63.20
48648;DHT22;34437;-33.956;151.076;2023-04-15T12:26:30;23.70;63.20
48648;DHT22;34437;-33.956;151.076;2023-04-15T12:29:03;23.80;63.20
48648;DHT22;34437;-33.956;151.076;2023-04-15T12:31:25;23.70;63.30
48648;DHT22;34437;-33.956;151.076;2023-04-15T12:33:48;23.70;63.30
48648;DHT22;34437;-33.956;151.076;2023-04-15T12:36:10;23.70;63.20
48648;DHT22;34437;-33.956;151.076;2023-04-15T12:38:33;23.70;63.30
48648;DHT22;34437;-33.956;151.076;2023-04-15T12:40:55;23.70;63.30
48648;DHT22;34437;-33.956;151.076;2023-04-15T12:43:18;23.70;63.30
48648;DHT22;34437;-33.956;151.076;2023-04-15T12:45:40;23.70;63.30
48648;DHT22;34437;-33.956;151.076;2023-04-15T12:48:03;23.70;63.40
48648;DHT22;34437;-33.956;151.076;2023-04-15T12:50:26;23.70;63.40
48648;DHT22;34437;-33.956;151.076;2023-04-15T12:52:48;23.70;63.40
48648;DHT22;34437;-33.956;151.076;2023-04-15T12:55:10;23.70;63.40
48648;DHT22;34437;-33.956;151.076;2023-04-15T12:57:33;23.70;63.40
48648;DHT22;34437;-33.956;151.076;2023-04-15T12:59:55;23.70;63.40
48648;DHT22;34437;-33.956;151.076;2023-04-15T13:02:18;23.60;63.40
48648;DHT22;34437;-33.956;151.076;2023-04-15T13:04:41;23.60;63.40
48648;DHT22;34437;-33.956;151.076;2023-04-15T13:07:04;23.60;63.50
48648;DHT22;34437;-33.956;151.076;2023-04-15T13:09:26;23.60;63.50
48648;DHT22;34437;-33.956;151.076;2023-04-15T13:11:49;23.60;63.60
48648;DHT22;34437;-33.956;151.076;2023-04-15T13:14:12;23.60;63.60
48648;DHT22;34437;-33.956;151.076;2023-04-15T13:16:34;23.60;63.60
48648;DHT22;34437;-33.956;151.076;2023-04-15T13:18:58;23.60;63.60
48648;DHT22;34437;-33.956;151.076;2023-04-15T13:21:21;23.60;63.60
48648;DHT22;34437;-33.956;151.076;2023-04-15T13:23:43;23.60;63.60
48648;DHT22;34437;-33.956;151.076;2023-04-15T13:26:06;23.50;63.60
48648;DHT22;34437;-33.956;151.076;2023-04-15T13:28:29;23.50;63.60
48648;DHT22;34437;-33.956;151.076;2023-04-15T13:30:51;23.60;63.70
48648;DHT22;34437;-33.956;151.076;2023-04-15T13:33:15;23.60;63.80
48648;DHT22;34437;-33.956;151.076;2023-04-15T13:35:38;23.50;63.60
48648;DHT22;34437;-33.956;151.076;2023-04-15T13:38:01;23.60;63.70
48648;DHT22;34437;-33.956;151.076;2023-04-15T13:40:23;23.50;63.70
48648;DHT22;34437;-33.956;151.076;2023-04-15T13:42:46;23.50;63.70
48648;DHT22;34437;-33.956;151.076;2023-04-15T13:45:09;23.50;63.90
48648;DHT22;34437;-33.956;151.076;2023-04-15T13:47:32;23.60;64.30
48648;DHT22;34437;-33.956;151.076;2023-04-15T13:49:54;23.60;64.50
48648;DHT22;34437;-33.956;151.076;2023-04-15T13:52:17;23.60;64.70
48648;DHT22;34437;-33.956;151.076;2023-04-15T13:54:39;23.60;64.80
48648;DHT22;34437;-33.956;151.076;2023-04-15T13:57:02;23.70;64.90
48648;DHT22;34437;-33.956;151.076;2023-04-15T13:59:24;23.70;64.80
48648;DHT22;34437;-33.956;151.076;2023-04-15T14:01:47;23.70;64.80
48648;DHT22;34437;-33.956;151.076;2023-04-15T14:04:09;23.70;64.80
48648;DHT22;34437;-33.956;151.076;2023-04-15T14:06:31;23.80;64.80
48648;DHT22;34437;-33.956;151.076;2023-04-15T14:08:54;23.80;64.80
48648;DHT22;34437;-33.956;151.076;2023-04-15T14:11:16;23.80;64.80
48648;DHT22;34437;-33.956;151.076;2023-04-15T14:13:39;23.80;65.10
48648;DHT22;34437;-33.956;151.076;2023-04-15T14:16:02;23.80;64.80
48648;DHT22;34437;-33.956;151.076;2023-04-15T14:18:24;23.80;65.00
48648;DHT22;34437;-33.956;151.076;2023-04-15T14:20:46;23.90;65.00
48648;DHT22;34437;-33.956;151.076;2023-04-15T14:23:09;23.90;65.00
48648;DHT22;34437;-33.956;151.076;2023-04-15T14:25:31;23.90;65.00
48648;DHT22;34437;-33.956;151.076;2023-04-15T14:27:54;23.90;65.00
48648;DHT22;34437;-33.956;151.076;2023-04-15T14:30:17;23.90;65.00
48648;DHT22;34437;-33.956;151.076;2023-04-15T14:32:39;23.90;65.10
48648;DHT22;34437;-33.956;151.076;2023-04-15T14:35:02;23.90;65.20
48648;DHT22;34437;-33.956;151.076;2023-04-15T14:37:25;23.90;65.10
48648;DHT22;34437;-33.956;151.076;2023-04-15T14:39:48;23.90;65.20
48648;DHT22;34437;-33.956;151.076;2023-04-15T14:42:11;23.90;65.10
48648;DHT22;34437;-33.956;151.076;2023-04-15T14:44:33;23.90;65.10
48648;DHT22;34437;-33.956;151.076;2023-04-15T14:46:56;23.90;65.00